createdAt,value
2019-04-21T00:01:14.070Z,40.41
2019-04-21T00:06:39.086Z,39.98
2019-04-21T00:09:02.658Z,40.04
2019-04-21T00:11:31.378Z,39.76
2019-04-21T00:13:52.732Z,39.97
2019-04-21T00:16:10.638Z,40.08
2019-04-21T00:18:58.072Z,40.00
2019-04-21T00:21:31.512Z,39.17
2019-04-21T00:24:06.147Z,38.62
2019-04-21T00:26:33.288Z,38.62
2019-04-21T00:29:33.007Z,38.89
2019-04-21T00:31:45.485Z,39.73
2019-04-21T00:34:00.570Z,39.69
2019-04-21T00:36:39.820Z,39.97
2019-04-21T00:39:28.808Z,39.92
2019-04-21T00:41:44.985Z,40.04
2019-04-21T00:44:07.058Z,40.10
2019-04-21T00:46:35.143Z,40.09
2019-04-21T00:49:02.671Z,41.01
2019-04-21T00:51:49.809Z,40.72
2019-04-21T00:54:18.451Z,41.30
2019-04-21T00:56:46.715Z,40.69
2019-04-21T00:59:18.230Z,41.23
2019-04-21T01:01:35.111Z,41.69
2019-04-21T01:04:02.212Z,41.54
2019-04-21T01:06:38.027Z,41.17
2019-04-21T01:08:59.061Z,40.94
2019-04-21T01:11:23.947Z,40.88
2019-04-21T01:13:59.486Z,41.32
2019-04-21T01:16:31.702Z,41.68
2019-04-21T01:18:51.871Z,41.75
2019-04-21T01:20:59.320Z,41.64
2019-04-21T01:23:25.663Z,42.76
2019-04-21T01:26:08.810Z,42.49
2019-04-21T01:28:35.951Z,42.45
2019-04-21T01:31:12.422Z,43.25
2019-04-21T01:33:39.797Z,43.41
2019-04-21T01:36:03.870Z,44.94
2019-04-21T01:38:38.129Z,44.82
2019-04-21T01:41:10.255Z,44.60
2019-04-21T01:43:27.617Z,43.51
2019-04-21T01:45:54.933Z,43.15
2019-04-21T01:48:22.919Z,43.08
2019-04-21T01:50:51.097Z,44.26
2019-04-21T01:53:42.469Z,43.83
2019-04-21T01:56:12.084Z,43.40
2019-04-21T01:58:37.980Z,42.66
2019-04-21T02:01:10.185Z,42.67
2019-04-21T02:06:18.206Z,43.66
2019-04-21T02:08:36.011Z,43.71
2019-04-21T02:11:12.264Z,42.89
2019-04-21T02:13:35.537Z,43.05
2019-04-21T02:16:08.202Z,43.17
2019-04-21T02:18:33.739Z,43.11
2019-04-21T02:20:50.115Z,42.78
2019-04-21T02:26:01.861Z,43.48
2019-04-21T02:28:40.478Z,43.17
2019-04-21T02:31:13.742Z,42.29
2019-04-21T02:33:39.273Z,41.86
2019-04-21T02:36:15.572Z,42.10
2019-04-21T02:41:01.318Z,41.68
2019-04-21T02:45:55.965Z,41.27
2019-04-21T02:50:46.358Z,42.12
2019-04-21T02:53:45.516Z,42.59
2019-04-21T02:55:44.637Z,43.12
2019-04-21T03:01:14.466Z,42.49
2019-04-21T03:03:54.584Z,42.71
2019-04-21T03:06:34.970Z,42.89
2019-04-21T03:09:03.442Z,42.61
2019-04-21T03:11:24.161Z,42.75
2019-04-21T03:16:28.547Z,43.54
2019-04-21T03:23:51.747Z,43.82
2019-04-21T03:36:37.919Z,43.13
2019-04-21T03:38:37.771Z,44.44
2019-04-21T03:40:57.272Z,43.23
2019-04-21T03:43:32.481Z,42.02
2019-04-21T03:45:49.710Z,41.01
2019-04-21T03:48:27.051Z,41.97
2019-04-21T03:50:47.396Z,41.68
2019-04-21T03:53:18.540Z,42.65
2019-04-21T03:58:25.958Z,43.35
2019-04-21T04:08:31.836Z,35.84
2019-04-21T04:11:04.695Z,34.22
2019-04-21T04:13:27.137Z,32.51
2019-04-21T04:18:35.434Z,29.15
2019-04-21T04:20:42.556Z,27.54
2019-04-21T04:23:37.301Z,26.40
2019-04-21T04:25:42.991Z,25.59
2019-04-21T04:28:31.563Z,25.48
2019-04-21T04:30:37.930Z,24.35
2019-04-21T04:33:12.476Z,23.28
2019-04-21T04:35:42.388Z,22.39
2019-04-21T04:40:44.878Z,21.47
2019-04-21T04:43:19.252Z,21.70
2019-04-21T04:45:38.475Z,21.53
2019-04-21T04:48:05.869Z,21.16
2019-04-21T04:53:05.213Z,19.28
2019-04-21T04:55:45.718Z,19.58
2019-04-21T04:58:15.996Z,19.77
2019-04-21T05:00:36.927Z,20.33
2019-04-21T05:02:56.388Z,22.66
2019-04-21T05:05:30.224Z,22.78
2019-04-21T05:07:57.748Z,24.64
2019-04-21T05:10:27.608Z,23.64
2019-04-21T05:15:16.239Z,20.78
2019-04-21T05:17:59.264Z,23.54
2019-04-21T05:22:35.518Z,25.06
2019-04-21T05:24:59.457Z,23.58
2019-04-21T05:27:25.660Z,24.32
2019-04-21T05:30:15.316Z,27.36
2019-04-21T05:32:41.761Z,29.01
2019-04-21T05:35:15.628Z,28.52
2019-04-21T05:37:43.292Z,25.63
2019-04-21T05:40:12.222Z,22.95
2019-04-21T05:42:39.918Z,22.49
2019-04-21T05:47:46.335Z,21.56
2019-04-21T05:50:13.395Z,21.49
2019-04-21T05:52:44.696Z,21.50
2019-04-21T05:55:31.805Z,22.02
2019-04-21T05:57:48.128Z,21.68
2019-04-21T06:00:31.664Z,20.41
2019-04-21T06:02:51.000Z,20.93
2019-04-21T06:05:20.893Z,23.55
2019-04-21T06:07:42.267Z,22.44
2019-04-21T06:10:07.258Z,22.12
2019-04-21T06:12:40.633Z,23.07
2019-04-21T06:15:07.986Z,24.16
2019-04-21T06:17:35.146Z,23.97
2019-04-21T06:22:33.289Z,27.20
2019-04-21T06:32:46.017Z,27.14
2019-04-21T06:37:39.747Z,25.97
2019-04-21T06:40:41.158Z,24.11
2019-04-21T06:42:13.273Z,22.72
2019-04-21T06:44:54.044Z,22.28
2019-04-21T06:47:26.045Z,22.11
2019-04-21T06:49:44.382Z,23.56
2019-04-21T06:52:33.447Z,24.37
2019-04-21T06:54:45.609Z,23.51
2019-04-21T06:57:12.260Z,22.71
2019-04-21T06:59:31.987Z,23.63
2019-04-21T07:02:28.767Z,25.73
2019-04-21T07:04:30.213Z,26.65
2019-04-21T07:07:01.472Z,26.02
2019-04-21T07:09:48.286Z,25.37
2019-04-21T07:11:54.996Z,25.19
2019-04-21T07:14:28.078Z,24.83
2019-04-21T07:16:56.444Z,22.93
2019-04-21T07:19:33.285Z,22.19
2019-04-21T07:22:03.337Z,22.02
2019-04-21T07:24:23.649Z,22.18
2019-04-21T07:26:47.717Z,23.75
2019-04-21T07:29:14.254Z,25.43
2019-04-21T07:31:47.029Z,25.72
2019-04-21T07:34:16.058Z,25.42
2019-04-21T07:36:48.050Z,26.09
2019-04-21T07:39:01.999Z,26.87
2019-04-21T07:41:24.937Z,25.77
2019-04-21T07:43:55.370Z,25.19
2019-04-21T07:46:23.796Z,24.58
2019-04-21T07:49:04.561Z,23.74
2019-04-21T07:51:47.697Z,22.89
2019-04-21T07:54:20.252Z,24.38
2019-04-21T07:56:28.283Z,22.46
2019-04-21T07:59:09.590Z,21.32
2019-04-21T08:01:42.341Z,22.14
2019-04-21T08:04:08.464Z,21.43
2019-04-21T08:06:40.815Z,21.06
2019-04-21T08:09:07.389Z,21.02
2019-04-21T08:11:28.171Z,18.86
2019-04-21T08:14:01.009Z,20.83
2019-04-21T08:16:35.027Z,21.64
2019-04-21T08:19:05.788Z,21.39
2019-04-21T08:21:29.950Z,20.67
2019-04-21T08:23:51.327Z,20.57
2019-04-21T08:26:29.210Z,19.11
2019-04-21T08:28:53.707Z,17.81
2019-04-21T08:31:30.523Z,18.66
2019-04-21T08:36:25.505Z,17.44
2019-04-21T08:38:41.723Z,17.01
2019-04-21T08:43:42.853Z,17.22
2019-04-21T08:46:05.402Z,17.15
2019-04-21T08:48:37.983Z,16.52
2019-04-21T08:51:14.211Z,16.18
2019-04-21T08:53:36.526Z,16.35
2019-04-21T09:01:30.354Z,21.16
2019-04-21T09:04:11.659Z,21.56
2019-04-21T09:06:59.194Z,20.42
2019-04-21T09:09:03.641Z,19.29
2019-04-21T09:11:28.746Z,20.91
2019-04-21T09:14:01.355Z,19.22
2019-04-21T09:16:26.655Z,19.15
2019-04-21T09:18:48.719Z,20.66
2019-04-21T09:21:25.898Z,20.71
2019-04-21T09:23:53.938Z,20.08
2019-04-21T09:26:23.276Z,18.79
2019-04-21T09:28:39.444Z,18.61
2019-04-21T09:31:01.234Z,20.76
2019-04-21T09:33:33.437Z,20.84
2019-04-21T09:35:58.867Z,19.22
2019-04-21T09:38:30.135Z,19.55
2019-04-21T09:40:52.724Z,18.27
2019-04-21T09:43:25.691Z,17.23
2019-04-21T09:45:45.669Z,18.10
2019-04-21T09:48:17.105Z,18.83
2019-04-21T09:50:41.333Z,19.35
2019-04-21T09:53:19.350Z,18.91
2019-04-21T09:55:42.993Z,19.63
2019-04-21T09:58:13.520Z,20.16
2019-04-21T10:00:43.562Z,19.06
2019-04-21T10:03:06.041Z,18.59
2019-04-21T10:05:29.636Z,19.69
2019-04-21T10:07:57.383Z,19.60
2019-04-21T10:10:25.170Z,20.60
2019-04-21T10:12:52.023Z,20.65
2019-04-21T10:15:19.121Z,20.46
2019-04-21T10:17:52.028Z,19.71
2019-04-21T10:20:18.476Z,19.12
2019-04-21T10:22:44.818Z,19.18
2019-04-21T10:25:12.581Z,19.42
2019-04-21T10:27:39.225Z,17.93
2019-04-21T10:30:09.851Z,18.74
2019-04-21T10:32:36.564Z,19.32
2019-04-21T10:35:05.567Z,18.82
2019-04-21T10:37:42.872Z,17.33
2019-04-21T10:40:00.146Z,17.48
2019-04-21T10:42:27.019Z,19.14
2019-04-21T10:44:54.738Z,17.23
2019-04-21T10:47:21.479Z,17.77
2019-04-21T10:49:49.071Z,17.70
2019-04-21T10:52:17.169Z,17.73
2019-04-21T10:55:06.869Z,18.49
2019-04-21T10:57:14.444Z,18.49
2019-04-21T10:59:46.227Z,18.07
2019-04-21T11:05:00.708Z,18.79
2019-04-21T11:07:58.950Z,17.60
2019-04-21T11:10:14.055Z,19.11
2019-04-21T11:12:41.391Z,19.57
2019-04-21T11:15:09.346Z,18.74
2019-04-21T11:17:36.430Z,18.67
2019-04-21T11:20:04.635Z,16.84
2019-04-21T11:22:33.471Z,16.04
2019-04-21T11:24:58.960Z,16.53
2019-04-21T11:27:25.118Z,15.75
2019-04-21T11:29:51.684Z,15.19
2019-04-21T11:32:19.083Z,14.35
2019-04-21T11:34:45.451Z,15.80
2019-04-21T11:37:14.355Z,17.19
2019-04-21T11:39:50.140Z,15.68
2019-04-21T11:42:12.062Z,14.59
2019-04-21T11:44:39.508Z,14.50
2019-04-21T11:47:07.802Z,13.85
2019-04-21T11:49:34.820Z,14.11
2019-04-21T11:52:01.134Z,14.19
2019-04-21T11:54:28.758Z,16.33
2019-04-21T11:56:55.195Z,16.64
2019-04-21T11:59:21.757Z,16.20
2019-04-21T12:01:48.178Z,18.96
2019-04-21T12:04:15.970Z,19.66
2019-04-21T12:06:46.653Z,19.05
2019-04-21T12:09:11.805Z,19.26
2019-04-21T12:11:39.035Z,17.16
2019-04-21T12:14:05.884Z,18.73
2019-04-21T12:16:33.123Z,17.93
2019-04-21T12:19:00.668Z,16.50
2019-04-21T12:21:32.034Z,15.38
2019-04-21T12:23:56.502Z,16.62
2019-04-21T12:26:24.110Z,16.46
2019-04-21T12:28:50.472Z,15.14
2019-04-21T12:31:27.726Z,15.05
2019-04-21T12:33:56.243Z,15.41
2019-04-21T12:36:24.058Z,16.41
2019-04-21T12:38:55.851Z,16.18
2019-04-21T12:41:18.520Z,15.73
2019-04-21T12:43:44.675Z,16.71
2019-04-21T12:46:11.952Z,17.26
2019-04-21T12:48:38.416Z,17.05
2019-04-21T12:51:05.987Z,17.06
2019-04-21T12:53:33.855Z,16.41
2019-04-21T12:56:00.360Z,16.16
2019-04-21T12:58:26.518Z,16.07
2019-04-21T13:00:52.826Z,16.75
2019-04-21T13:03:21.628Z,17.85
2019-04-21T13:05:47.565Z,17.43
2019-04-21T13:08:15.359Z,15.46
2019-04-21T13:10:42.294Z,15.32
2019-04-21T13:13:09.971Z,14.10
2019-04-21T13:15:37.530Z,14.49
2019-04-21T13:18:04.616Z,15.05
2019-04-21T13:20:30.976Z,16.12
2019-04-21T13:22:57.787Z,17.35
2019-04-21T13:25:24.048Z,17.34
2019-04-21T13:27:50.207Z,18.42
2019-04-21T13:30:18.150Z,16.93
2019-04-21T13:32:45.287Z,16.54
2019-04-21T13:35:12.965Z,16.13
2019-04-21T13:37:39.676Z,17.53
2019-04-21T13:40:34.147Z,17.37
2019-04-21T13:42:48.298Z,17.01
2019-04-21T13:45:12.262Z,15.85
2019-04-21T13:47:38.761Z,14.80
2019-04-21T13:50:07.168Z,15.30
2019-04-21T13:52:34.049Z,16.59
2019-04-21T13:55:01.232Z,18.01
2019-04-21T13:57:28.491Z,16.41
2019-04-21T13:59:55.107Z,16.41
2019-04-21T14:02:22.656Z,15.72
2019-04-21T14:04:49.680Z,15.18
2019-04-21T14:07:16.454Z,15.16
2019-04-21T14:09:49.950Z,15.21
2019-04-21T14:12:11.698Z,14.90
2019-04-21T14:14:38.621Z,14.68
2019-04-21T14:17:05.528Z,16.45
2019-04-21T14:19:33.245Z,17.74
2019-04-21T14:21:59.485Z,18.03
2019-04-21T14:24:26.750Z,18.13
2019-04-21T14:26:54.314Z,17.62
2019-04-21T14:29:21.751Z,17.41
2019-04-21T14:31:48.443Z,17.55
2019-04-21T14:34:15.991Z,16.76
2019-04-21T14:36:42.543Z,16.14
2019-04-21T14:39:10.541Z,16.30
2019-04-21T14:41:38.047Z,15.82
2019-04-21T14:44:04.793Z,16.23
2019-04-21T14:46:33.308Z,15.67
2019-04-21T14:49:01.596Z,15.32
2019-04-21T14:51:32.211Z,15.25
2019-04-21T14:54:03.703Z,15.24
2019-04-21T14:56:31.268Z,14.76
2019-04-21T14:59:00.565Z,15.39
2019-04-21T15:01:26.197Z,15.78
2019-04-21T15:03:52.563Z,15.37
2019-04-21T15:06:19.011Z,15.12
2019-04-21T15:08:45.239Z,15.74
2019-04-21T15:11:11.754Z,15.80
2019-04-21T15:13:39.614Z,17.27
2019-04-21T15:16:06.858Z,16.40
2019-04-21T15:18:34.650Z,15.95
2019-04-21T15:21:01.517Z,16.00
2019-04-21T15:23:30.065Z,15.44
2019-04-21T15:25:56.646Z,15.78
2019-04-21T15:28:22.757Z,16.08
2019-04-21T15:30:50.291Z,16.05
2019-04-21T15:33:18.138Z,16.69
2019-04-21T15:35:44.964Z,18.71
2019-04-21T15:38:11.847Z,18.57
2019-04-21T15:40:47.722Z,17.75
2019-04-21T15:43:06.546Z,17.10
2019-04-21T15:45:32.833Z,16.81
2019-04-21T15:48:00.173Z,16.34
2019-04-21T15:50:27.979Z,16.29
2019-04-21T15:52:56.374Z,16.45
2019-04-21T15:55:42.242Z,16.76
2019-04-21T15:58:28.247Z,16.18
2019-04-21T16:01:02.718Z,15.81
2019-04-21T16:03:29.180Z,16.16
2019-04-21T16:05:55.829Z,16.75
2019-04-21T16:08:22.115Z,17.11
2019-04-21T16:10:54.674Z,17.46
2019-04-21T16:13:16.369Z,17.57
2019-04-21T16:15:42.524Z,17.52
2019-04-21T16:18:10.040Z,17.63
2019-04-21T16:20:37.578Z,17.98
2019-04-21T16:23:04.547Z,17.97
2019-04-21T16:25:30.888Z,19.07
2019-04-21T16:27:57.295Z,19.13
2019-04-21T16:30:23.939Z,18.95
2019-04-21T16:32:50.305Z,18.98
2019-04-21T16:35:18.274Z,18.95
2019-04-21T16:37:45.832Z,19.32
2019-04-21T16:40:13.740Z,19.63
2019-04-21T16:42:40.469Z,19.67
2019-04-21T16:45:07.970Z,21.02
2019-04-21T16:47:34.189Z,23.11
2019-04-21T16:50:01.578Z,24.02
2019-04-21T16:52:30.061Z,24.92
2019-04-21T16:55:10.799Z,25.87
2019-04-21T16:57:39.860Z,26.16
2019-04-21T17:00:10.726Z,26.48
2019-04-21T17:02:38.371Z,26.61
2019-04-21T17:05:06.784Z,26.57
2019-04-21T17:07:32.966Z,26.69
2019-04-21T17:09:59.182Z,27.67
2019-04-21T17:12:26.755Z,27.88
2019-04-21T17:15:10.859Z,27.58
2019-04-21T17:17:44.238Z,27.96
2019-04-21T17:19:53.530Z,27.96
2019-04-21T17:22:17.888Z,28.08
2019-04-21T17:24:44.474Z,28.42
2019-04-21T17:27:11.195Z,28.64
2019-04-21T17:29:38.637Z,29.05
2019-04-21T17:32:07.886Z,29.65
2019-04-21T17:34:35.268Z,30.72
2019-04-21T17:37:01.318Z,31.51
2019-04-21T17:39:28.850Z,31.52
2019-04-21T17:42:07.025Z,31.60
2019-04-21T17:44:23.535Z,31.29
2019-04-21T17:46:56.357Z,31.34
2019-04-21T17:49:18.911Z,31.05
2019-04-21T17:51:54.610Z,31.48
2019-04-21T17:54:25.767Z,32.05
2019-04-21T17:57:11.224Z,32.08
2019-04-21T17:59:45.041Z,32.17
2019-04-21T18:02:02.240Z,32.34
2019-04-21T18:04:30.989Z,32.51
2019-04-21T18:07:07.459Z,32.26
2019-04-21T18:09:44.126Z,32.00
2019-04-21T18:12:07.544Z,31.61
2019-04-21T18:14:18.988Z,31.55
2019-04-21T18:16:47.859Z,31.45
2019-04-21T18:19:12.989Z,31.70
2019-04-21T18:21:50.063Z,32.50
2019-04-21T18:24:19.320Z,32.50
2019-04-21T18:26:52.171Z,32.69
2019-04-21T18:29:13.613Z,32.75
2019-04-21T18:31:45.614Z,32.61
2019-04-21T18:34:14.751Z,31.99
2019-04-21T18:36:49.983Z,32.04
2019-04-21T18:42:31.235Z,32.09
2019-04-21T18:45:28.072Z,31.67
2019-04-21T18:47:45.729Z,31.42
2019-04-21T18:49:54.449Z,31.08
2019-04-21T18:52:42.685Z,30.77
2019-04-21T18:55:05.286Z,30.70
2019-04-21T18:57:30.942Z,30.74
2019-04-21T18:59:51.215Z,30.75
2019-04-21T19:02:20.575Z,30.78
2019-04-21T19:04:46.835Z,30.61
2019-04-21T19:07:27.277Z,30.60
2019-04-21T19:10:22.563Z,30.79
2019-04-21T19:12:36.621Z,31.08
2019-04-21T19:14:54.921Z,31.15
2019-04-21T19:18:05.504Z,31.76
2019-04-21T19:22:20.130Z,31.98
2019-04-21T19:24:56.619Z,31.84
2019-04-21T19:27:19.270Z,32.09
2019-04-21T19:29:54.073Z,32.85
2019-04-21T19:32:25.651Z,33.24
2019-04-21T19:34:29.340Z,32.48
2019-04-21T19:36:59.533Z,32.19
2019-04-21T19:39:36.153Z,32.85
2019-04-21T19:42:00.823Z,33.01
2019-04-21T19:44:35.232Z,32.73
2019-04-21T19:47:02.998Z,32.69
2019-04-21T19:49:32.058Z,31.70
2019-04-21T19:51:51.484Z,31.75
2019-04-21T19:54:19.801Z,30.82
2019-04-21T19:56:38.491Z,31.15
2019-04-21T19:59:04.710Z,30.00
2019-04-21T20:01:31.761Z,29.67
2019-04-21T20:04:00.911Z,29.75
2019-04-21T20:06:44.015Z,29.85
2019-04-21T20:09:13.516Z,30.33
2019-04-21T20:11:38.854Z,30.05
2019-04-21T20:14:39.885Z,29.72
2019-04-21T20:16:37.457Z,29.15
2019-04-21T20:18:55.371Z,29.39
2019-04-21T20:21:16.396Z,29.15
2019-04-21T20:23:44.671Z,29.06
2019-04-21T20:26:12.170Z,28.92
2019-04-21T20:28:49.172Z,28.60
2019-04-21T20:31:23.669Z,28.35
2019-04-21T20:36:31.594Z,28.23
2019-04-21T20:38:42.125Z,28.53
2019-04-21T20:41:15.889Z,29.65
2019-04-21T20:43:49.280Z,30.08
2019-04-21T20:46:12.339Z,30.15
2019-04-21T20:48:37.212Z,30.05
2019-04-21T20:51:23.640Z,30.72
2019-04-21T20:53:36.083Z,30.90
2019-04-21T20:55:59.123Z,31.63
2019-04-21T20:58:34.635Z,29.92
2019-04-21T21:01:20.898Z,29.72
2019-04-21T21:03:30.097Z,29.56
2019-04-21T21:05:56.701Z,30.72
2019-04-21T21:08:32.737Z,29.94
2019-04-21T21:10:53.000Z,31.07
2019-04-21T21:13:26.437Z,31.17
2019-04-21T21:16:06.182Z,30.45
2019-04-21T21:20:48.359Z,30.49
2019-04-21T21:23:09.203Z,31.11
2019-04-21T21:25:47.015Z,30.27
2019-04-21T21:28:04.296Z,30.38
2019-04-21T21:30:34.598Z,31.41
2019-04-21T21:33:10.826Z,33.14
2019-04-21T21:35:31.028Z,33.07
2019-04-21T21:38:08.279Z,32.45
2019-04-21T21:40:30.516Z,33.09
2019-04-21T21:42:45.280Z,32.33
2019-04-21T21:45:17.242Z,32.85
2019-04-21T21:47:54.250Z,32.78
2019-04-21T21:50:19.944Z,33.21
2019-04-21T21:52:47.902Z,33.60
2019-04-21T21:55:05.775Z,33.69
2019-04-21T21:57:32.928Z,32.92
2019-04-21T22:00:04.723Z,34.24
2019-04-21T22:02:36.050Z,32.94
2019-04-21T22:05:05.455Z,33.50
2019-04-21T22:07:31.043Z,33.62
2019-04-21T22:09:54.573Z,33.91
2019-04-21T22:12:22.165Z,34.24
2019-04-21T22:14:52.063Z,32.93
2019-04-21T22:17:31.690Z,34.44
2019-04-21T22:20:13.277Z,34.63
2019-04-21T22:22:26.547Z,34.27
2019-04-21T22:24:53.168Z,34.36
2019-04-21T22:27:09.548Z,34.87
2019-04-21T22:29:41.791Z,35.27
2019-04-21T22:32:10.146Z,34.56
2019-04-21T22:34:38.601Z,34.84
2019-04-21T22:37:19.109Z,34.76
2019-04-21T22:39:51.664Z,34.33
2019-04-21T22:42:05.365Z,32.98
2019-04-21T22:44:24.799Z,34.18
2019-04-21T22:47:02.922Z,33.55
2019-04-21T22:49:21.442Z,34.14
2019-04-21T22:51:50.486Z,34.80
2019-04-21T22:54:22.193Z,34.58
2019-04-21T22:56:54.020Z,34.35
2019-04-21T22:59:16.019Z,34.70
2019-04-21T23:01:42.511Z,34.55
2019-04-21T23:04:10.286Z,34.25
2019-04-21T23:06:38.900Z,33.95
2019-04-21T23:09:06.733Z,33.33
2019-04-21T23:11:38.717Z,32.49
2019-04-21T23:14:05.039Z,32.27
2019-04-21T23:16:35.244Z,33.31
2019-04-21T23:19:18.630Z,32.96
2019-04-21T23:21:49.024Z,32.48
2019-04-21T23:24:08.747Z,32.29
2019-04-21T23:26:37.487Z,32.12
2019-04-21T23:29:09.025Z,31.80
2019-04-21T23:31:34.174Z,32.75
2019-04-21T23:33:46.493Z,32.79
2019-04-21T23:36:17.678Z,33.96
2019-04-21T23:38:44.910Z,31.30
2019-04-21T23:41:11.195Z,31.27
2019-04-21T23:43:38.543Z,31.11
2019-04-21T23:46:11.917Z,30.54
2019-04-21T23:48:48.890Z,30.35
2019-04-21T23:51:14.389Z,30.69
2019-04-21T23:53:29.429Z,32.03
2019-04-21T23:55:57.010Z,31.41
2019-04-21T23:58:27.413Z,31.62
